sensor_id;sensor_type;location;lat;lon;timestamp;pressure;altitude;pressure_sealevel;temperature;humidity
80640;BME280;69992;60.170;24.692;2023-12-07T00:01:11;102892.07;;;-7.28;31.46
80640;BME280;69992;60.170;24.692;2023-12-07T00:03:36;102892.94;;;-8.21;31.43
80640;BME280;69992;60.170;24.692;2023-12-07T00:06:01;102892.88;;;-8.21;31.47
80640;BME280;69992;60.170;24.692;2023-12-07T00:08:26;102893.96;;;-8.17;31.48
80640;BME280;69992;60.170;24.692;2023-12-07T00:10:51;102894.76;;;-7.04;31.43
80640;BME280;69992;60.170;24.692;2023-12-07T00:13:16;102897.63;;;-7.06;31.45
80640;BME280;69992;60.170;24.692;2023-12-07T00:15:42;102896.24;;;-7.06;31.49
80640;BME280;69992;60.170;24.692;2023-12-07T00:18:07;102897.95;;;-7.01;31.48
80640;BME280;69992;60.170;24.692;2023-12-07T00:20:32;102899.82;;;-6.00;31.49
80640;BME280;69992;60.170;24.692;2023-12-07T00:22:57;102901.23;;;-6.00;31.52
80640;BME280;69992;60.170;24.692;2023-12-07T00:25:22;102903.74;;;-6.97;31.53
80640;BME280;69992;60.170;24.692;2023-12-07T00:27:47;102910.01;;;-6.93;31.52
80640;BME280;69992;60.170;24.692;2023-12-07T00:30:12;102910.00;;;-6.91;31.52
80640;BME280;69992;60.170;24.692;2023-12-07T00:32:37;102908.11;;;-6.89;31.49
80640;BME280;69992;60.170;24.692;2023-12-07T00:35:03;102909.93;;;-6.91;31.51
80640;BME280;69992;60.170;24.692;2023-12-07T00:37:28;102911.00;;;-6.92;31.52
80640;BME280;69992;60.170;24.692;2023-12-07T00:39:53;102907.66;;;-6.93;31.53
80640;BME280;69992;60.170;24.692;2023-12-07T00:42:18;102910.26;;;-6.92;31.53
80640;BME280;69992;60.170;24.692;2023-12-07T00:44:43;102914.46;;;-6.92;31.56
80640;BME280;69992;60.170;24.692;2023-12-07T00:47:08;102917.96;;;-6.93;31.56
80640;BME280;69992;60.170;24.692;2023-12-07T00:49:37;102916.22;;;-6.90;31.57
80640;BME280;69992;60.170;24.692;2023-12-07T00:51:58;102915.79;;;-6.88;31.56
80640;BME280;69992;60.170;24.692;2023-12-07T00:54:23;102913.68;;;-7.81;31.57
80640;BME280;69992;60.170;24.692;2023-12-07T00:56:49;102911.34;;;-6.85;31.57
80640;BME280;69992;60.170;24.692;2023-12-07T00:59:14;102908.74;;;-6.86;31.57
80640;BME280;69992;60.170;24.692;2023-12-07T01:01:40;102907.69;;;-6.85;31.58
80640;BME280;69992;60.170;24.692;2023-12-07T01:04:05;102906.78;;;-6.81;31.56
80640;BME280;69992;60.170;24.692;2023-12-07T01:06:30;102905.38;;;-6.77;31.54
80640;BME280;69992;60.170;24.692;2023-12-07T01:08:55;102906.57;;;-6.73;31.54
80640;BME280;69992;60.170;24.692;2023-12-07T01:11:20;102910.19;;;-6.70;31.55
80640;BME280;69992;60.170;24.692;2023-12-07T01:13:45;102910.53;;;-6.67;31.55
80640;BME280;69992;60.170;24.692;2023-12-07T01:16:10;102912.00;;;-7.64;31.54
80640;BME280;69992;60.170;24.692;2023-12-07T01:18:35;102913.71;;;-6.69;31.55
80640;BME280;69992;60.170;24.692;2023-12-07T01:21:00;102916.31;;;-6.73;31.58
80640;BME280;69992;60.170;24.692;2023-12-07T01:23:25;102919.57;;;-6.71;31.59
80640;BME280;69992;60.170;24.692;2023-12-07T01:25:51;102920.22;;;-6.72;31.60
80640;BME280;69992;60.170;24.692;2023-12-07T01:28:16;102921.22;;;-6.69;31.61
80640;BME280;69992;60.170;24.692;2023-12-07T01:30:42;102922.14;;;-7.62;31.60
80640;BME280;69992;60.170;24.692;2023-12-07T01:33:07;102920.01;;;-6.65;31.62
80640;BME280;69992;60.170;24.692;2023-12-07T01:35:33;102923.65;;;-7.62;31.63
80640;BME280;69992;60.170;24.692;2023-12-07T01:37:58;102922.96;;;-6.61;31.61
80640;BME280;69992;60.170;24.692;2023-12-07T01:40:23;102925.82;;;-6.56;31.60
80640;BME280;69992;60.170;24.692;2023-12-07T01:42:50;102929.94;;;-6.59;31.63
80640;BME280;69992;60.170;24.692;2023-12-07T01:45:13;102930.87;;;-6.58;31.61
80640;BME280;69992;60.170;24.692;2023-12-07T01:47:38;102932.55;;;-6.57;31.62
80640;BME280;69992;60.170;24.692;2023-12-07T01:50:05;102934.21;;;-7.58;31.64
80640;BME280;69992;60.170;24.692;2023-12-07T01:52:30;102937.86;;;-7.64;31.65
80640;BME280;69992;60.170;24.692;2023-12-07T01:54:55;102939.03;;;-8.68;31.66
80640;BME280;69992;60.170;24.692;2023-12-07T01:57:20;102940.90;;;-6.75;31.69
80640;BME280;69992;60.170;24.692;2023-12-07T01:59:45;102942.90;;;-7.79;31.69
80640;BME280;69992;60.170;24.692;2023-12-07T02:02:10;102942.51;;;-6.80;31.71
80640;BME280;69992;60.170;24.692;2023-12-07T02:04:35;102942.33;;;-6.75;31.69
80640;BME280;69992;60.170;24.692;2023-12-07T02:07:00;102943.40;;;-4.75;31.69
80640;BME280;69992;60.170;24.692;2023-12-07T02:09:25;102940.70;;;-7.63;31.68
80640;BME280;69992;60.170;24.692;2023-12-07T02:11:50;102940.70;;;-6.65;31.69
80640;BME280;69992;60.170;24.692;2023-12-07T02:14:16;102942.63;;;-6.60;31.69
80640;BME280;69992;60.170;24.692;2023-12-07T02:16:45;102946.00;;;-6.53;31.66
80640;BME280;69992;60.170;24.692;2023-12-07T02:19:15;102949.67;;;-8.39;31.65
80640;BME280;69992;60.170;24.692;2023-12-07T02:21:36;102950.30;;;-7.31;31.61
80640;BME280;69992;60.170;24.692;2023-12-07T02:23:58;102949.90;;;-7.24;31.62
80640;BME280;69992;60.170;24.692;2023-12-07T02:26:29;102950.40;;;-7.17;31.59
80640;BME280;69992;60.170;24.692;2023-12-07T02:28:46;102948.54;;;-8.13;31.60
80640;BME280;69992;60.170;24.692;2023-12-07T02:31:11;102949.72;;;-6.18;31.62
80640;BME280;69992;60.170;24.692;2023-12-07T02:33:36;102949.20;;;-8.17;31.64
80640;BME280;69992;60.170;24.692;2023-12-07T02:36:02;102949.20;;;-6.23;31.66
80640;BME280;69992;60.170;24.692;2023-12-07T02:38:26;102950.45;;;-7.22;31.66
80640;BME280;69992;60.170;24.692;2023-12-07T02:40:53;102952.07;;;-6.24;31.67
80640;BME280;69992;60.170;24.692;2023-12-07T02:43:16;102950.18;;;-6.23;31.66
80640;BME280;69992;60.170;24.692;2023-12-07T02:45:42;102950.03;;;-6.22;31.66
80640;BME280;69992;60.170;24.692;2023-12-07T02:48:07;102953.60;;;-6.23;31.65
80640;BME280;69992;60.170;24.692;2023-12-07T02:50:32;102959.71;;;-6.22;31.64
80640;BME280;69992;60.170;24.692;2023-12-07T02:52:57;102959.93;;;-6.27;31.65
80640;BME280;69992;60.170;24.692;2023-12-07T02:55:22;102958.70;;;-7.27;31.66
80640;BME280;69992;60.170;24.692;2023-12-07T02:57:47;102963.30;;;-6.28;31.66
80640;BME280;69992;60.170;24.692;2023-12-07T03:00:13;102963.26;;;-7.29;31.66
80640;BME280;69992;60.170;24.692;2023-12-07T03:02:38;102965.12;;;-7.30;31.66
80640;BME280;69992;60.170;24.692;2023-12-07T03:05:03;102965.47;;;-7.27;31.66
80640;BME280;69992;60.170;24.692;2023-12-07T03:07:27;102966.37;;;-6.29;31.65
80640;BME280;69992;60.170;24.692;2023-12-07T03:09:52;102967.04;;;-7.28;31.65
80640;BME280;69992;60.170;24.692;2023-12-07T03:12:17;102969.70;;;-6.34;31.64
80640;BME280;69992;60.170;24.692;2023-12-07T03:14:42;102971.12;;;-7.34;31.65
80640;BME280;69992;60.170;24.692;2023-12-07T03:17:08;102969.40;;;-7.38;31.66
80640;BME280;69992;60.170;24.692;2023-12-07T03:19:37;102970.56;;;-6.42;31.66
80640;BME280;69992;60.170;24.692;2023-12-07T03:21:58;102971.91;;;-6.46;31.66
80640;BME280;69992;60.170;24.692;2023-12-07T03:24:23;102974.85;;;-6.50;31.66
80640;BME280;69992;60.170;24.692;2023-12-07T03:26:48;102978.68;;;-7.54;31.67
80640;BME280;69992;60.170;24.692;2023-12-07T03:29:14;102978.17;;;-6.60;31.68
80640;BME280;69992;60.170;24.692;2023-12-07T03:31:39;102980.84;;;-6.59;31.68
80640;BME280;69992;60.170;24.692;2023-12-07T03:34:04;102984.62;;;-7.60;31.67
80640;BME280;69992;60.170;24.692;2023-12-07T03:36:29;102986.96;;;-6.64;31.68
80640;BME280;69992;60.170;24.692;2023-12-07T03:38:54;102990.47;;;-6.69;31.68
80640;BME280;69992;60.170;24.692;2023-12-07T03:41:19;102995.03;;;-6.74;31.68
80640;BME280;69992;60.170;24.692;2023-12-07T03:43:44;102996.94;;;-6.72;31.68
80640;BME280;69992;60.170;24.692;2023-12-07T03:46:09;102996.62;;;-7.73;31.67
80640;BME280;69992;60.170;24.692;2023-12-07T03:48:34;102997.24;;;-6.78;31.67
80640;BME280;69992;60.170;24.692;2023-12-07T03:50:59;102996.89;;;-7.84;31.67
80640;BME280;69992;60.170;24.692;2023-12-07T03:53:24;102998.38;;;-6.96;31.67
80640;BME280;69992;60.170;24.692;2023-12-07T03:55:49;103001.31;;;-7.05;31.71
80640;BME280;69992;60.170;24.692;2023-12-07T03:58:14;103005.45;;;-7.07;31.71
80640;BME280;69992;60.170;24.692;2023-12-07T04:00:39;103006.19;;;-7.17;31.71
80640;BME280;69992;60.170;24.692;2023-12-07T04:03:04;103008.17;;;-6.24;31.73
80640;BME280;69992;60.170;24.692;2023-12-07T04:05:29;103008.23;;;-7.18;31.72
80640;BME280;69992;60.170;24.692;2023-12-07T04:07:54;103010.65;;;-7.19;31.70
80640;BME280;69992;60.170;24.692;2023-12-07T04:10:19;103012.30;;;-6.25;31.72
80640;BME280;69992;60.170;24.692;2023-12-07T04:12:44;103011.96;;;-7.27;31.72
80640;BME280;69992;60.170;24.692;2023-12-07T04:15:10;103013.68;;;-7.35;31.74
80640;BME280;69992;60.170;24.692;2023-12-07T04:17:35;103012.76;;;-8.31;31.74
80640;BME280;69992;60.170;24.692;2023-12-07T04:19:59;103013.23;;;-7.37;31.75
80640;BME280;69992;60.170;24.692;2023-12-07T04:22:25;103016.71;;;-8.38;31.75
80640;BME280;69992;60.170;24.692;2023-12-07T04:24:50;103017.39;;;-7.47;31.75
80640;BME280;69992;60.170;24.692;2023-12-07T04:27:15;103017.96;;;-7.54;31.75
80640;BME280;69992;60.170;24.692;2023-12-07T04:29:40;103018.88;;;-7.55;31.75
80640;BME280;69992;60.170;24.692;2023-12-07T04:32:06;103019.17;;;-7.55;31.74
80640;BME280;69992;60.170;24.692;2023-12-07T04:34:30;103022.41;;;-7.50;31.72
80640;BME280;69992;60.170;24.692;2023-12-07T04:36:55;103022.57;;;-7.46;31.72
80640;BME280;69992;60.170;24.692;2023-12-07T04:39:20;103021.96;;;-7.46;31.71
80640;BME280;69992;60.170;24.692;2023-12-07T04:41:46;103023.77;;;-7.44;31.71
80640;BME280;69992;60.170;24.692;2023-12-07T04:44:11;103019.39;;;-7.42;31.70
80640;BME280;69992;60.170;24.692;2023-12-07T04:46:36;103017.18;;;-7.41;31.69
80640;BME280;69992;60.170;24.692;2023-12-07T04:49:01;103016.50;;;-7.41;31.69
80640;BME280;69992;60.170;24.692;2023-12-07T04:51:26;103017.12;;;-7.42;31.69
80640;BME280;69992;60.170;24.692;2023-12-07T04:53:51;103020.25;;;-8.38;31.70
80640;BME280;69992;60.170;24.692;2023-12-07T04:56:16;103018.87;;;-7.35;31.67
80640;BME280;69992;60.170;24.692;2023-12-07T04:58:41;103017.35;;;-7.36;31.68
80640;BME280;69992;60.170;24.692;2023-12-07T05:01:06;103019.71;;;-7.36;31.67
80640;BME280;69992;60.170;24.692;2023-12-07T05:03:32;103023.34;;;-7.31;31.67
80640;BME280;69992;60.170;24.692;2023-12-07T05:05:56;103026.32;;;-7.36;31.66
80640;BME280;69992;60.170;24.692;2023-12-07T05:08:21;103029.21;;;-6.39;31.66
80640;BME280;69992;60.170;24.692;2023-12-07T05:10:46;103027.98;;;-7.48;31.69
80640;BME280;69992;60.170;24.692;2023-12-07T05:13:12;103027.92;;;-7.45;31.69
80640;BME280;69992;60.170;24.692;2023-12-07T05:15:37;103028.74;;;-7.35;31.68
80640;BME280;69992;60.170;24.692;2023-12-07T05:18:02;103029.70;;;-6.32;31.65
80640;BME280;69992;60.170;24.692;2023-12-07T05:20:27;103028.06;;;-7.35;31.65
80640;BME280;69992;60.170;24.692;2023-12-07T05:22:52;103029.02;;;-7.36;31.67
80640;BME280;69992;60.170;24.692;2023-12-07T05:25:18;103031.45;;;-7.34;31.66
80640;BME280;69992;60.170;24.692;2023-12-07T05:27:42;103029.67;;;-7.29;31.66
80640;BME280;69992;60.170;24.692;2023-12-07T05:30:08;103031.03;;;-7.30;31.65
80640;BME280;69992;60.170;24.692;2023-12-07T05:32:32;103030.29;;;-7.25;31.64
80640;BME280;69992;60.170;24.692;2023-12-07T05:34:57;103030.32;;;-7.21;31.63
80640;BME280;69992;60.170;24.692;2023-12-07T05:37:22;103031.83;;;-8.16;31.62
80640;BME280;69992;60.170;24.692;2023-12-07T05:39:47;103035.23;;;-7.12;31.60
80640;BME280;69992;60.170;24.692;2023-12-07T05:42:12;103037.56;;;-7.06;31.61
80640;BME280;69992;60.170;24.692;2023-12-07T05:44:37;103038.43;;;-7.01;31.61
80640;BME280;69992;60.170;24.692;2023-12-07T05:47:03;103037.00;;;-6.94;31.61
80640;BME280;69992;60.170;24.692;2023-12-07T05:49:28;103038.19;;;-6.87;31.59
80640;BME280;69992;60.170;24.692;2023-12-07T05:51:53;103038.19;;;-6.81;31.59
80640;BME280;69992;60.170;24.692;2023-12-07T05:54:18;103037.31;;;-7.74;31.58
80640;BME280;69992;60.170;24.692;2023-12-07T05:56:43;103038.18;;;-6.72;31.59
80640;BME280;69992;60.170;24.692;2023-12-07T05:59:08;103041.92;;;-6.67;31.59
80640;BME280;69992;60.170;24.692;2023-12-07T06:01:33;103044.02;;;-6.65;31.59
80640;BME280;69992;60.170;24.692;2023-12-07T06:03:58;103044.88;;;-6.68;31.56
80640;BME280;69992;60.170;24.692;2023-12-07T06:06:24;103047.71;;;-6.72;31.58
80640;BME280;69992;60.170;24.692;2023-12-07T06:08:49;103048.40;;;-7.65;31.58
80640;BME280;69992;60.170;24.692;2023-12-07T06:11:14;103049.12;;;-6.61;31.55
80640;BME280;69992;60.170;24.692;2023-12-07T06:13:39;103052.72;;;-6.63;31.55
80640;BME280;69992;60.170;24.692;2023-12-07T06:16:04;103057.71;;;-6.68;31.56
80640;BME280;69992;60.170;24.692;2023-12-07T06:18:30;103061.44;;;-6.66;31.57
80640;BME280;69992;60.170;24.692;2023-12-07T06:20:55;103060.13;;;-7.70;31.57
80640;BME280;69992;60.170;24.692;2023-12-07T06:23:20;103057.35;;;-7.77;31.59
80640;BME280;69992;60.170;24.692;2023-12-07T06:25:45;103058.09;;;-6.93;31.62
80640;BME280;69992;60.170;24.692;2023-12-07T06:28:10;103062.22;;;-7.08;31.66
80640;BME280;69992;60.170;24.692;2023-12-07T06:30:36;103066.06;;;-6.26;31.67
80640;BME280;69992;60.170;24.692;2023-12-07T06:33:01;103070.08;;;-8.37;31.71
80640;BME280;69992;60.170;24.692;2023-12-07T06:35:26;103070.55;;;-7.57;31.74
80640;BME280;69992;60.170;24.692;2023-12-07T06:37:51;103072.41;;;-7.70;31.78
80640;BME280;69992;60.170;24.692;2023-12-07T06:40:16;103076.69;;;-7.78;31.80
80640;BME280;69992;60.170;24.692;2023-12-07T06:42:41;103082.71;;;-7.92;31.81
80640;BME280;69992;60.170;24.692;2023-12-07T06:45:07;103083.45;;;-8.04;31.84
80640;BME280;69992;60.170;24.692;2023-12-07T06:47:31;103084.12;;;-8.07;31.83
80640;BME280;69992;60.170;24.692;2023-12-07T06:49:56;103083.53;;;-8.08;31.82
80640;BME280;69992;60.170;24.692;2023-12-07T06:52:21;103079.33;;;-8.22;31.84
80640;BME280;69992;60.170;24.692;2023-12-07T06:54:46;103082.16;;;-8.27;31.85
80640;BME280;69992;60.170;24.692;2023-12-07T06:57:11;103082.13;;;-8.34;31.86
80640;BME280;69992;60.170;24.692;2023-12-07T06:59:36;103084.89;;;-8.39;31.84
80640;BME280;69992;60.170;24.692;2023-12-07T07:02:01;103089.92;;;-7.45;31.85
